sensor_id;sensor_type;location;lat;lon;timestamp;P1;durP1;ratioP1;P2;durP2;ratioP2
17091;SDS011;8661;45.700;4.880;2023-04-25T00:00:17;5.63;;;3.93;;
17091;SDS011;8661;45.700;4.880;2023-04-25T00:02:45;8.30;;;4.10;;
17091;SDS011;8661;45.700;4.880;2023-04-25T00:05:14;8.30;;;4.50;;
17091;SDS011;8661;45.700;4.880;2023-04-25T00:07:41;7.67;;;4.67;;
17091;SDS011;8661;45.700;4.880;2023-04-25T00:10:08;9.47;;;4.30;;
17091;SDS011;8661;45.700;4.880;2023-04-25T00:12:36;18.17;;;7.73;;
17091;SDS011;8661;45.700;4.880;2023-04-25T00:15:04;16.47;;;6.83;;
17091;SDS011;8661;45.700;4.880;2023-04-25T00:17:32;18.13;;;8.40;;
17091;SDS011;8661;45.700;4.880;2023-04-25T00:19:59;12.90;;;6.30;;
17091;SDS011;8661;45.700;4.880;2023-04-25T00:22:31;8.37;;;5.10;;
17091;SDS011;8661;45.700;4.880;2023-04-25T00:24:59;7.73;;;5.00;;
17091;SDS011;8661;45.700;4.880;2023-04-25T00:27:26;9.77;;;5.77;;
17091;SDS011;8661;45.700;4.880;2023-04-25T00:29:53;8.63;;;5.33;;
17091;SDS011;8661;45.700;4.880;2023-04-25T00:32:19;10.10;;;5.87;;
17091;SDS011;8661;45.700;4.880;2023-04-25T00:34:46;10.87;;;5.63;;
17091;SDS011;8661;45.700;4.880;2023-04-25T00:37:13;9.77;;;6.07;;
17091;SDS011;8661;45.700;4.880;2023-04-25T00:39:42;10.57;;;5.83;;
17091;SDS011;8661;45.700;4.880;2023-04-25T00:42:09;10.50;;;5.80;;
17091;SDS011;8661;45.700;4.880;2023-04-25T00:44:37;15.23;;;7.13;;
17091;SDS011;8661;45.700;4.880;2023-04-25T00:47:04;9.33;;;5.20;;
17091;SDS011;8661;45.700;4.880;2023-04-25T00:49:31;13.20;;;6.17;;
17091;SDS011;8661;45.700;4.880;2023-04-25T00:51:58;12.43;;;6.07;;
17091;SDS011;8661;45.700;4.880;2023-04-25T00:54:26;9.13;;;5.77;;
17091;SDS011;8661;45.700;4.880;2023-04-25T00:56:54;10.53;;;5.77;;
17091;SDS011;8661;45.700;4.880;2023-04-25T00:59:21;7.87;;;5.43;;
17091;SDS011;8661;45.700;4.880;2023-04-25T01:01:48;9.00;;;5.30;;
17091;SDS011;8661;45.700;4.880;2023-04-25T01:04:15;6.90;;;5.03;;
17091;SDS011;8661;45.700;4.880;2023-04-25T01:06:42;6.80;;;4.27;;
17091;SDS011;8661;45.700;4.880;2023-04-25T01:09:09;6.50;;;3.93;;
17091;SDS011;8661;45.700;4.880;2023-04-25T01:11:36;7.20;;;3.60;;
17091;SDS011;8661;45.700;4.880;2023-04-25T01:14:06;5.60;;;3.10;;
17091;SDS011;8661;45.700;4.880;2023-04-25T01:16:33;7.23;;;3.70;;
17091;SDS011;8661;45.700;4.880;2023-04-25T01:19:01;5.00;;;3.00;;
17091;SDS011;8661;45.700;4.880;2023-04-25T01:21:32;6.43;;;3.57;;
17091;SDS011;8661;45.700;4.880;2023-04-25T01:23:59;7.87;;;3.90;;
17091;SDS011;8661;45.700;4.880;2023-04-25T01:26:26;8.70;;;3.63;;
17091;SDS011;8661;45.700;4.880;2023-04-25T01:28:53;5.17;;;2.93;;
17091;SDS011;8661;45.700;4.880;2023-04-25T01:31:20;4.67;;;3.20;;
17091;SDS011;8661;45.700;4.880;2023-04-25T01:33:47;8.67;;;3.27;;
17091;SDS011;8661;45.700;4.880;2023-04-25T01:36:14;8.70;;;3.67;;
17091;SDS011;8661;45.700;4.880;2023-04-25T01:38:43;4.80;;;2.90;;
17091;SDS011;8661;45.700;4.880;2023-04-25T01:41:12;8.63;;;3.63;;
17091;SDS011;8661;45.700;4.880;2023-04-25T01:43:39;7.43;;;3.17;;
17091;SDS011;8661;45.700;4.880;2023-04-25T01:46:06;9.30;;;3.07;;
17091;SDS011;8661;45.700;4.880;2023-04-25T01:48:33;5.67;;;3.13;;
17091;SDS011;8661;45.700;4.880;2023-04-25T01:51:00;6.23;;;3.13;;
17091;SDS011;8661;45.700;4.880;2023-04-25T01:53:27;5.93;;;3.43;;
17091;SDS011;8661;45.700;4.880;2023-04-25T01:55:55;6.53;;;2.97;;
17091;SDS011;8661;45.700;4.880;2023-04-25T01:58:22;6.00;;;2.73;;
17091;SDS011;8661;45.700;4.880;2023-04-25T02:00:49;5.97;;;3.43;;
17091;SDS011;8661;45.700;4.880;2023-04-25T02:03:16;5.80;;;3.20;;
17091;SDS011;8661;45.700;4.880;2023-04-25T02:05:43;5.47;;;2.70;;
17091;SDS011;8661;45.700;4.880;2023-04-25T02:08:09;5.60;;;3.10;;
17091;SDS011;8661;45.700;4.880;2023-04-25T02:10:36;5.83;;;3.43;;
17091;SDS011;8661;45.700;4.880;2023-04-25T02:13:05;7.23;;;3.10;;
17091;SDS011;8661;45.700;4.880;2023-04-25T02:15:31;7.17;;;3.23;;
17091;SDS011;8661;45.700;4.880;2023-04-25T02:17:58;6.77;;;3.30;;
17091;SDS011;8661;45.700;4.880;2023-04-25T02:20:26;4.37;;;3.00;;
17091;SDS011;8661;45.700;4.880;2023-04-25T02:22:53;5.77;;;3.07;;
17091;SDS011;8661;45.700;4.880;2023-04-25T02:25:20;5.57;;;3.00;;
17091;SDS011;8661;45.700;4.880;2023-04-25T02:27:47;4.53;;;3.00;;
17091;SDS011;8661;45.700;4.880;2023-04-25T02:30:19;4.67;;;3.10;;
17091;SDS011;8661;45.700;4.880;2023-04-25T02:32:46;6.47;;;2.87;;
17091;SDS011;8661;45.700;4.880;2023-04-25T02:35:13;4.77;;;2.83;;
17091;SDS011;8661;45.700;4.880;2023-04-25T02:37:40;6.80;;;2.93;;
17091;SDS011;8661;45.700;4.880;2023-04-25T02:40:07;6.37;;;3.17;;
17091;SDS011;8661;45.700;4.880;2023-04-25T02:42:35;3.77;;;2.63;;
17091;SDS011;8661;45.700;4.880;2023-04-25T02:45:02;6.27;;;2.63;;
17091;SDS011;8661;45.700;4.880;2023-04-25T02:47:30;4.70;;;2.77;;
17091;SDS011;8661;45.700;4.880;2023-04-25T02:49:57;5.43;;;2.80;;
17091;SDS011;8661;45.700;4.880;2023-04-25T02:52:24;4.80;;;2.73;;
17091;SDS011;8661;45.700;4.880;2023-04-25T02:54:51;4.57;;;2.70;;
17091;SDS011;8661;45.700;4.880;2023-04-25T02:57:18;3.17;;;2.80;;
17091;SDS011;8661;45.700;4.880;2023-04-25T02:59:45;5.03;;;3.13;;
17091;SDS011;8661;45.700;4.880;2023-04-25T03:02:12;7.23;;;3.00;;
17091;SDS011;8661;45.700;4.880;2023-04-25T03:04:40;4.80;;;3.00;;
17091;SDS011;8661;45.700;4.880;2023-04-25T03:07:07;4.27;;;2.83;;
17091;SDS011;8661;45.700;4.880;2023-04-25T03:09:34;4.53;;;3.07;;
17091;SDS011;8661;45.700;4.880;2023-04-25T03:12:00;6.77;;;2.90;;
17091;SDS011;8661;45.700;4.880;2023-04-25T03:14:27;5.50;;;2.87;;
17091;SDS011;8661;45.700;4.880;2023-04-25T03:16:54;6.27;;;2.93;;
17091;SDS011;8661;45.700;4.880;2023-04-25T03:19:21;8.77;;;3.10;;
17091;SDS011;8661;45.700;4.880;2023-04-25T03:21:49;6.37;;;3.70;;
17091;SDS011;8661;45.700;4.880;2023-04-25T03:24:16;9.03;;;3.80;;
17091;SDS011;8661;45.700;4.880;2023-04-25T03:26:43;6.83;;;4.03;;
17091;SDS011;8661;45.700;4.880;2023-04-25T03:29:10;7.40;;;3.47;;
17091;SDS011;8661;45.700;4.880;2023-04-25T03:31:37;8.10;;;3.57;;
17091;SDS011;8661;45.700;4.880;2023-04-25T03:34:04;7.07;;;3.20;;
17091;SDS011;8661;45.700;4.880;2023-04-25T03:36:31;6.77;;;3.70;;
17091;SDS011;8661;45.700;4.880;2023-04-25T03:39:00;4.83;;;3.10;;
17091;SDS011;8661;45.700;4.880;2023-04-25T03:41:27;4.17;;;3.10;;
17091;SDS011;8661;45.700;4.880;2023-04-25T03:43:54;13.10;;;4.00;;
17091;SDS011;8661;45.700;4.880;2023-04-25T03:46:21;11.27;;;4.83;;
17091;SDS011;8661;45.700;4.880;2023-04-25T03:48:48;6.03;;;3.47;;
17091;SDS011;8661;45.700;4.880;2023-04-25T03:51:15;6.87;;;3.33;;
17091;SDS011;8661;45.700;4.880;2023-04-25T03:53:42;6.03;;;3.17;;
17091;SDS011;8661;45.700;4.880;2023-04-25T03:56:10;7.20;;;3.60;;
17091;SDS011;8661;45.700;4.880;2023-04-25T03:58:37;7.13;;;3.33;;
17091;SDS011;8661;45.700;4.880;2023-04-25T04:01:04;5.07;;;2.80;;
17091;SDS011;8661;45.700;4.880;2023-04-25T04:03:32;6.50;;;3.50;;
17091;SDS011;8661;45.700;4.880;2023-04-25T04:06:00;7.27;;;3.50;;
17091;SDS011;8661;45.700;4.880;2023-04-25T04:08:27;6.37;;;3.30;;
17091;SDS011;8661;45.700;4.880;2023-04-25T04:10:54;6.90;;;3.20;;
17091;SDS011;8661;45.700;4.880;2023-04-25T04:13:23;8.07;;;3.33;;
17091;SDS011;8661;45.700;4.880;2023-04-25T04:15:49;5.27;;;3.17;;
17091;SDS011;8661;45.700;4.880;2023-04-25T04:18:16;8.17;;;3.63;;
17091;SDS011;8661;45.700;4.880;2023-04-25T04:20:43;5.70;;;3.40;;
17091;SDS011;8661;45.700;4.880;2023-04-25T04:23:10;9.40;;;3.10;;
17091;SDS011;8661;45.700;4.880;2023-04-25T04:25:37;9.40;;;3.77;;
17091;SDS011;8661;45.700;4.880;2023-04-25T04:28:05;8.93;;;3.10;;
17091;SDS011;8661;45.700;4.880;2023-04-25T04:30:33;7.57;;;3.57;;
17091;SDS011;8661;45.700;4.880;2023-04-25T04:33:02;9.17;;;3.83;;
17091;SDS011;8661;45.700;4.880;2023-04-25T04:35:29;5.70;;;3.73;;
17091;SDS011;8661;45.700;4.880;2023-04-25T04:37:56;8.77;;;4.77;;
17091;SDS011;8661;45.700;4.880;2023-04-25T04:40:23;10.33;;;4.93;;
17091;SDS011;8661;45.700;4.880;2023-04-25T04:42:50;8.67;;;4.90;;
17091;SDS011;8661;45.700;4.880;2023-04-25T04:45:18;12.10;;;5.07;;
17091;SDS011;8661;45.700;4.880;2023-04-25T04:47:46;8.90;;;5.10;;
17091;SDS011;8661;45.700;4.880;2023-04-25T04:50:14;13.27;;;5.80;;
17091;SDS011;8661;45.700;4.880;2023-04-25T04:52:41;9.87;;;4.93;;
17091;SDS011;8661;45.700;4.880;2023-04-25T04:55:08;14.60;;;6.23;;
17091;SDS011;8661;45.700;4.880;2023-04-25T04:57:35;19.90;;;7.00;;
17091;SDS011;8661;45.700;4.880;2023-04-25T05:00:04;6.13;;;4.57;;
17091;SDS011;8661;45.700;4.880;2023-04-25T05:02:35;7.37;;;4.17;;
17091;SDS011;8661;45.700;4.880;2023-04-25T05:05:04;7.90;;;4.37;;
17091;SDS011;8661;45.700;4.880;2023-04-25T05:07:32;8.13;;;4.40;;
17091;SDS011;8661;45.700;4.880;2023-04-25T05:09:59;5.63;;;4.50;;
17091;SDS011;8661;45.700;4.880;2023-04-25T05:12:26;8.70;;;4.43;;
17091;SDS011;8661;45.700;4.880;2023-04-25T05:14:53;8.10;;;4.40;;
17091;SDS011;8661;45.700;4.880;2023-04-25T05:17:20;7.17;;;4.63;;
17091;SDS011;8661;45.700;4.880;2023-04-25T05:19:47;7.17;;;4.63;;
17091;SDS011;8661;45.700;4.880;2023-04-25T05:22:15;7.33;;;4.77;;
17091;SDS011;8661;45.700;4.880;2023-04-25T05:24:42;10.90;;;4.90;;
17091;SDS011;8661;45.700;4.880;2023-04-25T05:27:09;8.10;;;5.00;;
17091;SDS011;8661;45.700;4.880;2023-04-25T05:29:36;9.53;;;5.27;;
17091;SDS011;8661;45.700;4.880;2023-04-25T05:32:03;9.43;;;4.87;;
17091;SDS011;8661;45.700;4.880;2023-04-25T05:34:31;10.53;;;5.13;;
17091;SDS011;8661;45.700;4.880;2023-04-25T05:36:57;8.40;;;4.97;;
17091;SDS011;8661;45.700;4.880;2023-04-25T05:39:26;7.93;;;4.80;;
17091;SDS011;8661;45.700;4.880;2023-04-25T05:41:53;16.10;;;5.87;;
17091;SDS011;8661;45.700;4.880;2023-04-25T05:44:20;11.87;;;6.23;;
17091;SDS011;8661;45.700;4.880;2023-04-25T05:46:47;9.63;;;4.90;;
17091;SDS011;8661;45.700;4.880;2023-04-25T05:49:14;7.53;;;5.20;;
17091;SDS011;8661;45.700;4.880;2023-04-25T05:51:41;9.10;;;5.27;;
17091;SDS011;8661;45.700;4.880;2023-04-25T05:54:08;10.37;;;5.40;;
17091;SDS011;8661;45.700;4.880;2023-04-25T05:56:37;8.33;;;5.50;;
17091;SDS011;8661;45.700;4.880;2023-04-25T05:59:04;12.63;;;5.20;;
17091;SDS011;8661;45.700;4.880;2023-04-25T06:01:31;9.73;;;5.57;;
17091;SDS011;8661;45.700;4.880;2023-04-25T06:03:58;8.03;;;5.20;;
17091;SDS011;8661;45.700;4.880;2023-04-25T06:06:25;10.10;;;5.67;;
17091;SDS011;8661;45.700;4.880;2023-04-25T06:08:52;13.03;;;5.53;;
17091;SDS011;8661;45.700;4.880;2023-04-25T06:11:19;8.80;;;4.80;;
17091;SDS011;8661;45.700;4.880;2023-04-25T06:13:47;13.77;;;5.20;;
17091;SDS011;8661;45.700;4.880;2023-04-25T06:16:14;9.40;;;5.00;;
17091;SDS011;8661;45.700;4.880;2023-04-25T06:18:41;7.43;;;5.33;;
17091;SDS011;8661;45.700;4.880;2023-04-25T06:21:08;9.37;;;5.50;;
17091;SDS011;8661;45.700;4.880;2023-04-25T06:23:35;8.20;;;5.10;;
17091;SDS011;8661;45.700;4.880;2023-04-25T06:26:02;9.20;;;4.80;;
17091;SDS011;8661;45.700;4.880;2023-04-25T06:28:29;16.13;;;5.50;;
17091;SDS011;8661;45.700;4.880;2023-04-25T06:30:57;8.83;;;5.07;;
17091;SDS011;8661;45.700;4.880;2023-04-25T06:33:24;9.53;;;5.10;;
17091;SDS011;8661;45.700;4.880;2023-04-25T06:35:51;9.67;;;4.97;;
17091;SDS011;8661;45.700;4.880;2023-04-25T06:38:18;6.40;;;4.43;;
17091;SDS011;8661;45.700;4.880;2023-04-25T06:40:45;12.97;;;5.10;;
17091;SDS011;8661;45.700;4.880;2023-04-25T06:43:12;13.37;;;5.80;;
17091;SDS011;8661;45.700;4.880;2023-04-25T06:45:39;24.67;;;7.07;;
17091;SDS011;8661;45.700;4.880;2023-04-25T06:48:08;17.37;;;5.20;;
17091;SDS011;8661;45.700;4.880;2023-04-25T06:50:35;13.73;;;5.17;;
17091;SDS011;8661;45.700;4.880;2023-04-25T06:53:02;10.50;;;5.00;;
17091;SDS011;8661;45.700;4.880;2023-04-25T06:55:29;7.90;;;5.90;;
17091;SDS011;8661;45.700;4.880;2023-04-25T06:57:56;8.83;;;4.63;;
17091;SDS011;8661;45.700;4.880;2023-04-25T07:00:23;8.83;;;4.73;;
17091;SDS011;8661;45.700;4.880;2023-04-25T07:02:50;7.20;;;4.60;;
17091;SDS011;8661;45.700;4.880;2023-04-25T07:05:18;9.87;;;4.80;;
17091;SDS011;8661;45.700;4.880;2023-04-25T07:07:45;12.43;;;4.80;;
17091;SDS011;8661;45.700;4.880;2023-04-25T07:10:12;9.17;;;4.37;;
17091;SDS011;8661;45.700;4.880;2023-04-25T07:12:40;9.00;;;4.60;;
17091;SDS011;8661;45.700;4.880;2023-04-25T07:15:07;7.83;;;4.43;;
17091;SDS011;8661;45.700;4.880;2023-04-25T07:17:35;7.93;;;4.33;;
17091;SDS011;8661;45.700;4.880;2023-04-25T07:20:02;10.33;;;4.07;;
17091;SDS011;8661;45.700;4.880;2023-04-25T07:22:32;8.63;;;4.40;;
17091;SDS011;8661;45.700;4.880;2023-04-25T07:24:59;7.50;;;4.07;;
17091;SDS011;8661;45.700;4.880;2023-04-25T07:27:26;8.33;;;4.83;;
17091;SDS011;8661;45.700;4.880;2023-04-25T07:29:53;8.70;;;3.93;;
17091;SDS011;8661;45.700;4.880;2023-04-25T07:32:20;7.23;;;4.33;;
17091;SDS011;8661;45.700;4.880;2023-04-25T07:34:47;8.00;;;4.03;;
17091;SDS011;8661;45.700;4.880;2023-04-25T07:37:14;6.77;;;3.50;;
17091;SDS011;8661;45.700;4.880;2023-04-25T07:39:42;7.43;;;3.70;;
17091;SDS011;8661;45.700;4.880;2023-04-25T07:42:11;8.93;;;3.47;;
17091;SDS011;8661;45.700;4.880;2023-04-25T07:44:37;5.67;;;3.67;;
17091;SDS011;8661;45.700;4.880;2023-04-25T07:47:05;20.70;;;4.10;;
17091;SDS011;8661;45.700;4.880;2023-04-25T07:49:33;6.73;;;3.23;;
17091;SDS011;8661;45.700;4.880;2023-04-25T07:52:00;9.70;;;4.10;;
17091;SDS011;8661;45.700;4.880;2023-04-25T07:54:27;7.53;;;3.53;;
17091;SDS011;8661;45.700;4.880;2023-04-25T07:56:56;7.07;;;3.80;;
17091;SDS011;8661;45.700;4.880;2023-04-25T07:59:23;5.43;;;3.23;;
17091;SDS011;8661;45.700;4.880;2023-04-25T08:01:50;5.07;;;3.07;;
17091;SDS011;8661;45.700;4.880;2023-04-25T08:04:17;4.77;;;3.13;;
17091;SDS011;8661;45.700;4.880;2023-04-25T08:06:44;7.93;;;5.17;;
17091;SDS011;8661;45.700;4.880;2023-04-25T08:09:13;22.17;;;5.27;;
17091;SDS011;8661;45.700;4.880;2023-04-25T08:11:40;10.17;;;3.20;;
17091;SDS011;8661;45.700;4.880;2023-04-25T08:14:09;6.27;;;3.20;;
17091;SDS011;8661;45.700;4.880;2023-04-25T08:16:37;5.53;;;2.67;;
17091;SDS011;8661;45.700;4.880;2023-04-25T08:19:04;3.97;;;2.93;;
17091;SDS011;8661;45.700;4.880;2023-04-25T08:21:31;4.00;;;2.73;;
17091;SDS011;8661;45.700;4.880;2023-04-25T08:23:58;12.20;;;3.90;;
17091;SDS011;8661;45.700;4.880;2023-04-25T08:26:25;8.00;;;3.30;;
17091;SDS011;8661;45.700;4.880;2023-04-25T08:28:52;12.17;;;3.50;;
17091;SDS011;8661;45.700;4.880;2023-04-25T08:31:20;7.53;;;3.10;;
17091;SDS011;8661;45.700;4.880;2023-04-25T08:33:47;4.27;;;2.40;;
17091;SDS011;8661;45.700;4.880;2023-04-25T08:36:16;5.47;;;2.30;;
17091;SDS011;8661;45.700;4.880;2023-04-25T08:38:43;6.63;;;2.77;;
17091;SDS011;8661;45.700;4.880;2023-04-25T08:41:10;4.37;;;2.60;;
17091;SDS011;8661;45.700;4.880;2023-04-25T08:43:37;6.47;;;2.17;;
17091;SDS011;8661;45.700;4.880;2023-04-25T08:46:08;3.50;;;2.00;;
17091;SDS011;8661;45.700;4.880;2023-04-25T08:48:37;5.63;;;2.30;;
17091;SDS011;8661;45.700;4.880;2023-04-25T08:51:06;6.40;;;2.17;;
17091;SDS011;8661;45.700;4.880;2023-04-25T08:53:33;6.83;;;2.27;;
17091;SDS011;8661;45.700;4.880;2023-04-25T08:56:01;7.17;;;2.17;;
17091;SDS011;8661;45.700;4.880;2023-04-25T08:58:28;2.60;;;2.00;;
17091;SDS011;8661;45.700;4.880;2023-04-25T09:00:55;4.63;;;2.17;;
17091;SDS011;8661;45.700;4.880;2023-04-25T09:03:22;4.27;;;2.70;;
17091;SDS011;8661;45.700;4.880;2023-04-25T09:05:50;6.03;;;2.50;;
17091;SDS011;8661;45.700;4.880;2023-04-25T09:08:20;4.13;;;2.37;;
17091;SDS011;8661;45.700;4.880;2023-04-25T09:10:47;5.23;;;2.37;;
17091;SDS011;8661;45.700;4.880;2023-04-25T09:13:14;4.00;;;1.90;;
17091;SDS011;8661;45.700;4.880;2023-04-25T09:15:50;7.17;;;2.20;;
17091;SDS011;8661;45.700;4.880;2023-04-25T09:18:24;3.40;;;2.17;;
17091;SDS011;8661;45.700;4.880;2023-04-25T09:20:53;4.20;;;1.80;;
17091;SDS011;8661;45.700;4.880;2023-04-25T09:23:22;4.53;;;1.97;;
17091;SDS011;8661;45.700;4.880;2023-04-25T09:25:50;7.27;;;2.13;;
17091;SDS011;8661;45.700;4.880;2023-04-25T09:28:22;5.33;;;1.70;;
17091;SDS011;8661;45.700;4.880;2023-04-25T09:30:54;10.10;;;2.37;;
17091;SDS011;8661;45.700;4.880;2023-04-25T09:33:26;7.87;;;2.30;;
17091;SDS011;8661;45.700;4.880;2023-04-25T09:36:01;3.03;;;2.10;;
17091;SDS011;8661;45.700;4.880;2023-04-25T09:38:29;2.70;;;1.50;;
17091;SDS011;8661;45.700;4.880;2023-04-25T09:40:57;4.20;;;1.70;;
17091;SDS011;8661;45.700;4.880;2023-04-25T09:43:24;3.90;;;1.63;;
17091;SDS011;8661;45.700;4.880;2023-04-25T09:45:53;4.80;;;1.80;;
17091;SDS011;8661;45.700;4.880;2023-04-25T09:48:24;6.37;;;1.90;;
17091;SDS011;8661;45.700;4.880;2023-04-25T09:51:07;2.90;;;1.67;;
17091;SDS011;8661;45.700;4.880;2023-04-25T09:53:35;3.60;;;1.30;;
17091;SDS011;8661;45.700;4.880;2023-04-25T09:56:03;6.07;;;1.80;;
17091;SDS011;8661;45.700;4.880;2023-04-25T09:58:32;4.13;;;1.70;;
17091;SDS011;8661;45.700;4.880;2023-04-25T10:01:00;4.30;;;1.50;;
17091;SDS011;8661;45.700;4.880;2023-04-25T10:03:30;4.47;;;1.67;;
17091;SDS011;8661;45.700;4.880;2023-04-25T10:05:58;4.10;;;1.40;;
17091;SDS011;8661;45.700;4.880;2023-04-25T10:08:30;2.97;;;1.40;;
17091;SDS011;8661;45.700;4.880;2023-04-25T10:10:59;3.87;;;1.53;;
17091;SDS011;8661;45.700;4.880;2023-04-25T10:13:27;4.07;;;1.57;;
17091;SDS011;8661;45.700;4.880;2023-04-25T10:15:55;7.23;;;1.97;;
17091;SDS011;8661;45.700;4.880;2023-04-25T10:18:24;5.63;;;1.57;;
17091;SDS011;8661;45.700;4.880;2023-04-25T10:20:51;3.23;;;2.40;;
17091;SDS011;8661;45.700;4.880;2023-04-25T10:23:19;6.57;;;2.03;;
17091;SDS011;8661;45.700;4.880;2023-04-25T10:25:48;3.60;;;1.93;;
17091;SDS011;8661;45.700;4.880;2023-04-25T10:28:16;6.33;;;2.00;;
17091;SDS011;8661;45.700;4.880;2023-04-25T10:33:35;3.93;;;1.77;;
17091;SDS011;8661;45.700;4.880;2023-04-25T10:36:10;6.10;;;2.10;;
17091;SDS011;8661;45.700;4.880;2023-04-25T10:38:38;6.20;;;1.97;;
17091;SDS011;8661;45.700;4.880;2023-04-25T10:41:07;4.80;;;1.83;;
17091;SDS011;8661;45.700;4.880;2023-04-25T10:43:36;5.93;;;2.10;;
17091;SDS011;8661;45.700;4.880;2023-04-25T10:46:17;6.17;;;2.10;;
17091;SDS011;8661;45.700;4.880;2023-04-25T10:48:46;4.13;;;1.70;;
17091;SDS011;8661;45.700;4.880;2023-04-25T10:51:18;4.67;;;2.10;;
17091;SDS011;8661;45.700;4.880;2023-04-25T10:53:46;3.60;;;1.80;;
17091;SDS011;8661;45.700;4.880;2023-04-25T10:56:24;5.37;;;2.07;;
17091;SDS011;8661;45.700;4.880;2023-04-25T10:58:57;3.07;;;1.60;;
17091;SDS011;8661;45.700;4.880;2023-04-25T11:01:35;3.73;;;1.57;;
17091;SDS011;8661;45.700;4.880;2023-04-25T11:04:03;5.23;;;1.70;;
17091;SDS011;8661;45.700;4.880;2023-04-25T11:06:37;3.30;;;1.60;;
17091;SDS011;8661;45.700;4.880;2023-04-25T11:09:12;4.40;;;1.70;;
17091;SDS011;8661;45.700;4.880;2023-04-25T11:11:41;4.63;;;1.90;;
17091;SDS011;8661;45.700;4.880;2023-04-25T11:14:07;3.27;;;1.50;;
17091;SDS011;8661;45.700;4.880;2023-04-25T11:16:34;4.03;;;1.53;;
17091;SDS011;8661;45.700;4.880;2023-04-25T11:19:02;4.63;;;1.80;;
17091;SDS011;8661;45.700;4.880;2023-04-25T11:21:29;2.50;;;1.63;;
17091;SDS011;8661;45.700;4.880;2023-04-25T11:23:57;2.87;;;1.40;;
17091;SDS011;8661;45.700;4.880;2023-04-25T11:26:25;3.37;;;1.30;;
17091;SDS011;8661;45.700;4.880;2023-04-25T11:28:57;2.20;;;1.50;;
17091;SDS011;8661;45.700;4.880;2023-04-25T11:31:25;7.07;;;1.77;;
17091;SDS011;8661;45.700;4.880;2023-04-25T11:33:52;2.73;;;1.50;;
17091;SDS011;8661;45.700;4.880;2023-04-25T11:36:19;2.13;;;1.40;;
17091;SDS011;8661;45.700;4.880;2023-04-25T11:38:46;3.43;;;1.53;;
17091;SDS011;8661;45.700;4.880;2023-04-25T11:41:13;7.13;;;2.17;;
17091;SDS011;8661;45.700;4.880;2023-04-25T11:43:40;6.77;;;1.90;;
17091;SDS011;8661;45.700;4.880;2023-04-25T11:46:10;2.43;;;1.40;;
17091;SDS011;8661;45.700;4.880;2023-04-25T11:48:38;5.40;;;1.50;;
17091;SDS011;8661;45.700;4.880;2023-04-25T11:51:05;5.00;;;1.60;;
17091;SDS011;8661;45.700;4.880;2023-04-25T11:53:32;2.13;;;1.50;;
17091;SDS011;8661;45.700;4.880;2023-04-25T11:55:58;3.60;;;2.20;;
17091;SDS011;8661;45.700;4.880;2023-04-25T11:58:26;3.60;;;2.00;;
17091;SDS011;8661;45.700;4.880;2023-04-25T12:00:53;2.63;;;1.50;;
17091;SDS011;8661;45.700;4.880;2023-04-25T12:03:24;24.83;;;3.80;;
17091;SDS011;8661;45.700;4.880;2023-04-25T12:06:01;6.90;;;2.00;;
17091;SDS011;8661;45.700;4.880;2023-04-25T12:08:30;4.50;;;1.90;;
17091;SDS011;8661;45.700;4.880;2023-04-25T12:10:57;3.23;;;1.40;;
17091;SDS011;8661;45.700;4.880;2023-04-25T12:13:25;4.63;;;1.80;;
17091;SDS011;8661;45.700;4.880;2023-04-25T12:15:53;3.50;;;1.53;;
17091;SDS011;8661;45.700;4.880;2023-04-25T12:18:22;4.07;;;1.60;;
17091;SDS011;8661;45.700;4.880;2023-04-25T12:20:52;3.50;;;1.70;;
17091;SDS011;8661;45.700;4.880;2023-04-25T12:23:25;4.37;;;1.20;;
17091;SDS011;8661;45.700;4.880;2023-04-25T12:25:52;6.67;;;1.53;;
17091;SDS011;8661;45.700;4.880;2023-04-25T12:28:21;4.27;;;1.50;;
17091;SDS011;8661;45.700;4.880;2023-04-25T12:30:52;2.00;;;1.40;;
17091;SDS011;8661;45.700;4.880;2023-04-25T12:33:25;3.60;;;1.80;;
17091;SDS011;8661;45.700;4.880;2023-04-25T12:35:53;5.53;;;1.70;;
17091;SDS011;8661;45.700;4.880;2023-04-25T12:38:21;4.13;;;1.50;;
17091;SDS011;8661;45.700;4.880;2023-04-25T12:40:49;3.43;;;1.63;;
17091;SDS011;8661;45.700;4.880;2023-04-25T12:43:16;2.07;;;1.60;;
17091;SDS011;8661;45.700;4.880;2023-04-25T12:45:43;4.47;;;1.87;;
17091;SDS011;8661;45.700;4.880;2023-04-25T12:48:10;3.90;;;1.60;;
17091;SDS011;8661;45.700;4.880;2023-04-25T12:50:38;2.30;;;1.80;;
17091;SDS011;8661;45.700;4.880;2023-04-25T12:53:06;4.03;;;1.70;;
17091;SDS011;8661;45.700;4.880;2023-04-25T12:55:33;3.13;;;1.37;;
17091;SDS011;8661;45.700;4.880;2023-04-25T12:58:00;3.90;;;1.73;;
17091;SDS011;8661;45.700;4.880;2023-04-25T13:00:28;3.00;;;1.60;;
17091;SDS011;8661;45.700;4.880;2023-04-25T13:02:55;4.37;;;1.60;;
17091;SDS011;8661;45.700;4.880;2023-04-25T13:05:21;1.83;;;1.43;;
17091;SDS011;8661;45.700;4.880;2023-04-25T13:07:50;3.07;;;1.50;;
17091;SDS011;8661;45.700;4.880;2023-04-25T13:10:17;3.57;;;1.60;;
17091;SDS011;8661;45.700;4.880;2023-04-25T13:12:44;4.20;;;1.50;;
17091;SDS011;8661;45.700;4.880;2023-04-25T13:15:11;7.50;;;2.03;;
17091;SDS011;8661;45.700;4.880;2023-04-25T13:17:40;3.50;;;2.00;;
17091;SDS011;8661;45.700;4.880;2023-04-25T13:20:08;2.37;;;1.63;;
17091;SDS011;8661;45.700;4.880;2023-04-25T13:22:35;2.50;;;1.40;;
17091;SDS011;8661;45.700;4.880;2023-04-25T13:25:05;2.90;;;1.33;;
17091;SDS011;8661;45.700;4.880;2023-04-25T13:27:33;3.87;;;1.30;;
17091;SDS011;8661;45.700;4.880;2023-04-25T13:30:02;3.83;;;1.50;;
17091;SDS011;8661;45.700;4.880;2023-04-25T13:32:32;4.40;;;1.73;;
17091;SDS011;8661;45.700;4.880;2023-04-25T13:34:59;5.60;;;1.67;;
17091;SDS011;8661;45.700;4.880;2023-04-25T13:37:25;4.13;;;1.60;;
17091;SDS011;8661;45.700;4.880;2023-04-25T13:39:52;2.60;;;1.47;;
17091;SDS011;8661;45.700;4.880;2023-04-25T13:42:22;3.47;;;1.40;;
17091;SDS011;8661;45.700;4.880;2023-04-25T13:44:49;2.73;;;1.53;;
17091;SDS011;8661;45.700;4.880;2023-04-25T13:47:16;5.60;;;1.67;;
17091;SDS011;8661;45.700;4.880;2023-04-25T13:49:43;4.23;;;1.20;;
17091;SDS011;8661;45.700;4.880;2023-04-25T13:52:10;2.47;;;1.30;;
17091;SDS011;8661;45.700;4.880;2023-04-25T13:54:37;2.53;;;1.57;;
17091;SDS011;8661;45.700;4.880;2023-04-25T13:57:03;3.90;;;1.60;;
17091;SDS011;8661;45.700;4.880;2023-04-25T13:59:32;21.23;;;4.83;;
17091;SDS011;8661;45.700;4.880;2023-04-25T14:01:59;12.17;;;2.87;;
17091;SDS011;8661;45.700;4.880;2023-04-25T14:04:25;5.73;;;1.73;;
17091;SDS011;8661;45.700;4.880;2023-04-25T14:06:52;3.83;;;1.10;;
17091;SDS011;8661;45.700;4.880;2023-04-25T14:09:20;3.33;;;1.23;;
17091;SDS011;8661;45.700;4.880;2023-04-25T14:11:50;2.53;;;1.13;;
17091;SDS011;8661;45.700;4.880;2023-04-25T14:14:17;2.20;;;1.30;;
17091;SDS011;8661;45.700;4.880;2023-04-25T14:16:45;3.60;;;1.27;;
17091;SDS011;8661;45.700;4.880;2023-04-25T14:19:13;4.47;;;1.30;;
17091;SDS011;8661;45.700;4.880;2023-04-25T14:21:40;5.90;;;1.40;;
17091;SDS011;8661;45.700;4.880;2023-04-25T14:24:07;4.50;;;1.67;;
17091;SDS011;8661;45.700;4.880;2023-04-25T14:26:35;5.13;;;1.70;;
17091;SDS011;8661;45.700;4.880;2023-04-25T14:29:03;1.97;;;1.30;;
17091;SDS011;8661;45.700;4.880;2023-04-25T14:31:31;3.27;;;1.40;;
17091;SDS011;8661;45.700;4.880;2023-04-25T14:34:00;3.60;;;1.10;;
17091;SDS011;8661;45.700;4.880;2023-04-25T14:36:27;3.97;;;1.40;;
17091;SDS011;8661;45.700;4.880;2023-04-25T14:38:55;5.33;;;1.23;;
17091;SDS011;8661;45.700;4.880;2023-04-25T14:41:22;3.67;;;1.67;;
17091;SDS011;8661;45.700;4.880;2023-04-25T14:43:50;1.73;;;1.60;;
17091;SDS011;8661;45.700;4.880;2023-04-25T14:46:17;2.97;;;1.50;;
17091;SDS011;8661;45.700;4.880;2023-04-25T14:48:44;3.30;;;1.30;;
17091;SDS011;8661;45.700;4.880;2023-04-25T14:51:16;3.13;;;1.37;;
17091;SDS011;8661;45.700;4.880;2023-04-25T14:53:42;2.03;;;1.60;;
17091;SDS011;8661;45.700;4.880;2023-04-25T14:56:09;4.03;;;1.90;;
17091;SDS011;8661;45.700;4.880;2023-04-25T14:58:37;5.50;;;2.03;;
17091;SDS011;8661;45.700;4.880;2023-04-25T15:01:05;4.27;;;2.23;;
17091;SDS011;8661;45.700;4.880;2023-04-25T15:03:33;3.67;;;1.73;;
17091;SDS011;8661;45.700;4.880;2023-04-25T15:06:00;2.30;;;1.53;;